2OI9 weather

Comprix Heliport
Groveport, Ohio, United States

Public forecast

Using degrees Fahrenheit for public forecast. Weather courtesy of forecast.io.

Closest aviation weather report (METAR) to Comprix Heliport

Closest report is Rickenbacker International Airport, 1.8 nm (3.3 km) SSW. Retrieved 2020/06/05 21:55 UTC (20 minutes ago):

KLCK 052155Z AUTO 26006KT CLR 29/19 A2986 RMK AO2 T02880190

Closest aviation forecast (TAF) to Comprix Heliport

Closest forecast is Rickenbacker International Airport, 1.8 nm (3.3 km) SSW. Retrieved 2020/06/05 18:48 UTC (3 hours ago):

TAF KLCK 051745Z 0518/0618 VRB03KT P6SM SCT025 BKN250 FM061200 33007KT P6SM FEW040